325  
SHUS65 KGJT 232018  
FWOGJT  
 
DAILY FIRE WEATHER OBSERVATION  
NATIONAL WEATHER SERVICE GRAND JUNCTION CO  
212 PM MDT SAT JUN 23 2018  
 
STATE OF THE WEATHER (W) 1  
DRY BULB TEMPERATURE 90 DEGREES FAHRENHEIT  
RELATIVE HUMIDITY (RH) 12 PERCENT  
LIGHTNING ACTIVITY LEVEL  
(LAL - MIDNIGHT TO 2 PM) 1  
WIND DIRECTION 270 DEGREES (C IF CALM)  
WIND SPEED 9 MPH  
MAX TEMP (2 PM - 2 PM) 94 DEGREES FAHRENHEIT  
MIN TEMP (2 PM - 2 PM) 56 DEGREES FAHRENHEIT  
MAX RH (2 PM - 2 PM) 32 PERCENT  
MIN RH (2 PM - 2 PM) 5 PERCENT  
PCPN DURATION 0.0 HOURS  
PCPN AMT (2 PM - 2 PM) 0.0 INCHES  
LAL (2 PM - 2 PM) 1  
 

 
 
METAR KGJT 231953Z 29008G16KT 10SM CLR 32/M02 A2988 RMK AO2  
SLP037 T03171017  
 
CLICK HERE TO GO TO PREVIOUS BULLETINS.

The Nexlab CO Page
The Nexlab UT Page Main Text Page